createdAt,value
2018-05-25T00:00:40.717Z,17.65
2018-05-25T00:01:40.908Z,17.72
2018-05-25T00:02:41.110Z,17.70
2018-05-25T00:03:41.308Z,17.76
2018-05-25T00:04:41.499Z,17.74
2018-05-25T00:07:23.808Z,17.76
2018-05-25T00:08:23.978Z,17.86
2018-05-25T00:09:24.152Z,17.80
2018-05-25T00:10:24.317Z,17.78
2018-05-25T00:11:24.502Z,17.85
2018-05-25T00:12:24.667Z,17.85
2018-05-25T00:13:24.828Z,17.80
2018-05-25T00:14:24.995Z,17.86
2018-05-25T00:15:25.162Z,17.82
2018-05-25T00:16:25.328Z,17.80
2018-05-25T00:17:25.501Z,17.80
2018-05-25T00:18:25.665Z,17.70
2018-05-25T00:19:25.833Z,17.51
2018-05-25T00:20:25.995Z,17.42
2018-05-25T00:21:26.200Z,17.45
2018-05-25T00:24:09.055Z,17.51
2018-05-25T00:25:08.970Z,17.38
2018-05-25T00:26:09.163Z,17.41
2018-05-25T00:27:09.363Z,17.45
2018-05-25T00:28:09.553Z,17.44
2018-05-25T00:29:09.752Z,17.41
2018-05-25T00:30:09.940Z,17.39
2018-05-25T00:31:10.107Z,17.49
2018-05-25T00:32:10.308Z,17.63
2018-05-25T00:33:10.467Z,17.64
2018-05-25T00:34:10.637Z,17.56
2018-05-25T00:35:10.801Z,17.57
2018-05-25T00:36:10.970Z,17.51
2018-05-25T00:37:11.137Z,17.67
2018-05-25T00:38:11.308Z,17.64
2018-05-25T00:40:53.565Z,17.46
2018-05-25T00:41:53.786Z,17.42
2018-05-25T00:42:53.957Z,17.42
2018-05-25T00:43:54.147Z,17.39
2018-05-25T00:44:54.327Z,17.45
2018-05-25T00:45:54.566Z,17.46
2018-05-25T00:46:54.734Z,17.51
2018-05-25T00:47:54.945Z,17.56
2018-05-25T00:48:55.135Z,17.52
2018-05-25T00:49:55.274Z,17.64
2018-05-25T00:52:37.881Z,17.82
2018-05-25T00:53:38.046Z,17.85
2018-05-25T00:54:38.216Z,17.85
2018-05-25T00:55:38.396Z,17.98
2018-05-25T00:56:38.575Z,17.97
2018-05-25T00:57:38.766Z,18.03
2018-05-25T00:58:38.958Z,18.05
2018-05-25T00:59:39.146Z,18.13
2018-05-25T01:00:39.334Z,18.08
2018-05-25T01:01:39.505Z,18.18
2018-05-25T01:02:39.674Z,18.13
2018-05-25T01:03:39.839Z,18.15
2018-05-25T01:04:40.005Z,18.16
2018-05-25T01:05:40.173Z,18.07
2018-05-25T01:06:40.338Z,18.00
2018-05-25T01:09:22.908Z,18.07
2018-05-25T01:10:23.079Z,18.01
2018-05-25T01:11:23.243Z,18.03
2018-05-25T01:12:23.408Z,17.83
2018-05-25T01:13:23.575Z,17.71
2018-05-25T01:14:23.745Z,17.60
2018-05-25T01:15:23.918Z,17.59
2018-05-25T01:16:24.083Z,17.59
2018-05-25T01:17:24.269Z,17.49
2018-05-25T01:18:24.415Z,17.44
2018-05-25T01:19:24.579Z,17.45
2018-05-25T01:20:24.745Z,17.48
2018-05-25T01:21:24.915Z,17.49
2018-05-25T01:22:25.090Z,17.48
2018-05-25T01:23:25.255Z,17.41
2018-05-25T01:26:07.818Z,17.49
2018-05-25T01:27:07.995Z,17.57
2018-05-25T01:28:08.188Z,17.71
2018-05-25T01:29:08.333Z,17.67
2018-05-25T01:30:08.502Z,17.67
2018-05-25T01:31:08.666Z,17.80
2018-05-25T01:32:08.840Z,17.82
2018-05-25T01:33:09.005Z,17.78
2018-05-25T01:34:09.172Z,17.86
2018-05-25T01:35:09.339Z,17.74
2018-05-25T01:36:09.507Z,17.79
2018-05-25T01:37:09.678Z,17.86
2018-05-25T01:38:09.845Z,17.70
2018-05-25T01:39:10.013Z,17.80
2018-05-25T01:40:10.178Z,17.97
2018-05-25T01:42:52.443Z,17.85
2018-05-25T01:43:52.613Z,17.78
2018-05-25T01:44:52.781Z,17.74
2018-05-25T01:45:52.943Z,17.80
2018-05-25T01:46:53.110Z,17.76
2018-05-25T01:47:53.277Z,17.57
2018-05-25T01:48:53.445Z,17.52
2018-05-25T01:49:53.606Z,17.42
2018-05-25T01:50:53.779Z,17.49
2018-05-25T01:51:53.948Z,17.39
2018-05-25T01:52:54.117Z,17.36
2018-05-25T01:53:54.277Z,17.41
2018-05-25T01:54:54.445Z,17.46
2018-05-25T01:55:54.613Z,17.54
2018-05-25T01:56:54.782Z,17.45
2018-05-25T01:59:37.049Z,17.30
2018-05-25T02:00:37.215Z,17.29
2018-05-25T02:01:37.381Z,17.20
2018-05-25T02:02:37.568Z,17.26
2018-05-25T02:03:37.736Z,17.26
2018-05-25T02:04:37.897Z,17.15
2018-05-25T02:05:38.065Z,17.26
2018-05-25T02:06:38.244Z,17.27
2018-05-25T02:07:38.428Z,17.22
2018-05-25T02:08:38.579Z,17.16
2018-05-25T02:09:38.745Z,17.01
2018-05-25T02:10:38.911Z,17.09
2018-05-25T02:11:39.083Z,17.04
2018-05-25T02:12:39.251Z,17.08
2018-05-25T02:13:39.412Z,17.20
2018-05-25T02:20:20.527Z,16.99
2018-05-25T02:21:20.203Z,17.14
2018-05-25T02:22:20.388Z,17.22
2018-05-25T02:23:20.545Z,17.09
2018-05-25T02:24:20.711Z,17.20
2018-05-25T02:25:20.896Z,17.24
2018-05-25T02:26:21.061Z,17.26
2018-05-25T02:27:21.226Z,17.29
2018-05-25T02:28:21.401Z,17.22
2018-05-25T02:29:21.557Z,17.15
2018-05-25T02:32:04.145Z,17.15
2018-05-25T02:33:04.309Z,17.22
2018-05-25T02:34:04.493Z,17.22
2018-05-25T02:35:04.646Z,17.30
2018-05-25T02:36:04.819Z,17.29
2018-05-25T02:37:04.991Z,17.36
2018-05-25T02:38:05.151Z,17.42
2018-05-25T02:39:05.316Z,17.48
2018-05-25T02:40:05.483Z,17.46
2018-05-25T02:41:05.651Z,17.51
2018-05-25T02:42:05.817Z,17.54
2018-05-25T02:43:05.978Z,17.54
2018-05-25T02:44:06.149Z,17.60
2018-05-25T02:45:06.317Z,17.59
2018-05-25T02:46:06.486Z,17.39
2018-05-25T02:48:48.748Z,17.42
2018-05-25T02:49:48.917Z,17.44
2018-05-25T02:50:49.089Z,17.41
2018-05-25T02:51:49.252Z,17.45
2018-05-25T02:52:49.425Z,17.44
2018-05-25T02:53:49.599Z,17.45
2018-05-25T02:54:49.759Z,17.44
2018-05-25T02:55:49.931Z,17.49
2018-05-25T02:56:50.106Z,17.48
2018-05-25T02:57:50.254Z,17.42
2018-05-25T03:00:32.809Z,17.45
2018-05-25T03:01:32.976Z,17.49
2018-05-25T03:02:33.147Z,17.49
2018-05-25T03:03:33.312Z,17.56
2018-05-25T03:04:33.487Z,17.54
2018-05-25T03:05:33.653Z,17.68
2018-05-25T03:06:33.823Z,17.64
2018-05-25T03:07:33.987Z,17.72
2018-05-25T03:08:34.154Z,17.68
2018-05-25T03:09:34.320Z,17.74
2018-05-25T03:12:16.900Z,17.67
2018-05-25T03:13:17.070Z,17.52
2018-05-25T03:14:17.238Z,17.48
2018-05-25T03:15:17.623Z,17.34
2018-05-25T03:16:17.593Z,17.38
2018-05-25T03:17:17.756Z,17.24
2018-05-25T03:18:17.925Z,17.14
2018-05-25T03:19:18.091Z,17.23
2018-05-25T03:20:18.263Z,17.29
2018-05-25T03:21:18.428Z,17.20
2018-05-25T03:22:18.597Z,17.19
2018-05-25T03:23:18.762Z,17.34
2018-05-25T03:24:18.934Z,17.39
2018-05-25T03:25:19.105Z,17.42
2018-05-25T03:26:19.276Z,17.45
2018-05-25T03:34:19.987Z,17.46
2018-05-25T03:35:20.034Z,17.41
2018-05-25T03:36:20.200Z,17.41
2018-05-25T03:37:20.367Z,17.48
2018-05-25T03:38:20.540Z,17.44
2018-05-25T03:39:20.704Z,17.52
2018-05-25T03:40:20.871Z,17.49
2018-05-25T03:41:21.042Z,17.57
2018-05-25T03:42:21.206Z,17.48
2018-05-25T03:43:21.370Z,17.63
2018-05-25T03:44:21.537Z,17.48
2018-05-25T03:45:21.708Z,17.39
2018-05-25T03:46:21.875Z,17.42
2018-05-25T03:47:22.048Z,17.46
2018-05-25T03:48:22.213Z,17.39
2018-05-25T03:51:04.774Z,17.38
2018-05-25T03:52:04.946Z,17.44
2018-05-25T03:53:05.115Z,17.27
2018-05-25T03:54:05.284Z,17.31
2018-05-25T03:55:05.460Z,17.31
2018-05-25T03:56:05.620Z,17.39
2018-05-25T03:57:05.792Z,17.31
2018-05-25T03:58:05.958Z,17.29
2018-05-25T03:59:06.124Z,17.31
2018-05-25T04:00:06.288Z,17.31
2018-05-25T04:07:36.963Z,16.99
2018-05-25T04:08:37.124Z,17.06
2018-05-25T04:09:37.282Z,17.11
2018-05-25T04:10:37.453Z,17.14
2018-05-25T04:11:37.625Z,17.19
2018-05-25T04:12:37.794Z,17.26
2018-05-25T04:13:37.962Z,17.20
2018-05-25T04:14:38.114Z,17.14
2018-05-25T04:15:38.277Z,17.08
2018-05-25T04:16:38.452Z,17.12
2018-05-25T04:17:38.618Z,17.08
2018-05-25T04:18:38.796Z,17.04
2018-05-25T04:19:38.955Z,17.08
2018-05-25T04:20:39.129Z,17.01
2018-05-25T04:21:39.294Z,17.04
2018-05-25T04:28:59.954Z,16.78
2018-05-25T04:30:00.119Z,16.87
2018-05-25T04:31:00.294Z,16.87
2018-05-25T04:32:00.466Z,16.94
2018-05-25T04:33:00.629Z,16.97
2018-05-25T04:34:00.796Z,17.11
2018-05-25T04:35:00.985Z,17.01
2018-05-25T04:36:01.162Z,16.97
2018-05-25T04:37:01.323Z,17.09
2018-05-25T04:38:01.538Z,17.15
2018-05-25T04:39:01.725Z,17.08
2018-05-25T04:40:01.890Z,16.96
2018-05-25T04:41:02.055Z,16.99
2018-05-25T04:42:02.235Z,16.99
2018-05-25T04:43:02.433Z,17.06
2018-05-25T04:49:23.068Z,17.26
2018-05-25T04:50:23.232Z,17.19
2018-05-25T04:51:23.421Z,17.20
2018-05-25T04:52:23.638Z,17.27
2018-05-25T04:53:23.745Z,17.30
2018-05-25T04:54:23.900Z,17.33
2018-05-25T04:55:24.080Z,17.38
2018-05-25T04:56:24.250Z,17.33
2018-05-25T04:57:24.415Z,17.54
2018-05-25T04:58:24.581Z,17.49
2018-05-25T05:01:06.860Z,17.52
2018-05-25T05:02:07.025Z,17.51
2018-05-25T05:04:39.372Z,17.71
2018-05-25T05:05:39.581Z,17.74
2018-05-25T05:06:39.717Z,17.80
2018-05-25T05:07:39.902Z,17.83
2018-05-25T05:08:40.060Z,17.85
2018-05-25T05:09:40.223Z,17.86
2018-05-25T05:10:40.395Z,17.94
2018-05-25T05:11:40.565Z,17.79
2018-05-25T05:12:40.757Z,17.68
2018-05-25T05:13:40.917Z,17.68
2018-05-25T05:14:41.094Z,17.74
2018-05-25T05:15:41.261Z,17.82
2018-05-25T05:16:41.425Z,17.85
2018-05-25T05:17:41.583Z,17.90
2018-05-25T05:18:41.774Z,17.89
2018-05-25T05:22:32.340Z,18.01
2018-05-25T05:23:32.518Z,18.05
2018-05-25T05:24:32.677Z,18.05
2018-05-25T05:25:32.846Z,18.07
2018-05-25T05:26:41.150Z,18.08
2018-05-25T05:27:33.193Z,18.15
2018-05-25T05:28:33.363Z,18.08
2018-05-25T05:29:33.643Z,18.15
2018-05-25T05:30:33.701Z,18.19
2018-05-25T05:31:41.331Z,18.20
2018-05-25T05:32:34.006Z,18.22
2018-05-25T05:33:34.246Z,18.16
2018-05-25T05:34:34.355Z,18.10
2018-05-25T05:35:34.515Z,18.18
2018-05-25T05:36:34.708Z,18.10
2018-05-25T05:37:34.870Z,18.11
2018-05-25T05:38:35.056Z,18.15
2018-05-25T05:39:35.223Z,18.19
2018-05-25T05:40:35.401Z,18.22
2018-05-25T05:41:35.583Z,18.31
2018-05-25T05:42:35.769Z,18.29
2018-05-25T05:43:35.953Z,18.23
2018-05-25T05:44:36.119Z,18.34
2018-05-25T05:45:36.307Z,18.34
2018-05-25T05:48:18.622Z,18.40
2018-05-25T05:49:18.802Z,18.40
2018-05-25T05:50:18.965Z,18.43
2018-05-25T05:51:27.099Z,18.41
2018-05-25T05:52:19.260Z,18.38
2018-05-25T05:53:19.428Z,18.49
2018-05-25T05:54:19.622Z,18.44
2018-05-25T05:55:19.803Z,18.45
2018-05-25T05:56:19.977Z,18.44
2018-05-25T05:57:20.154Z,18.49
2018-05-25T05:58:30.692Z,18.56
2018-05-25T05:59:27.948Z,18.53
2018-05-25T06:00:20.656Z,18.37
2018-05-25T06:01:20.828Z,18.44
2018-05-25T06:02:21.027Z,18.33
2018-05-25T06:03:21.219Z,18.29
2018-05-25T06:04:21.392Z,18.22
2018-05-25T06:05:21.560Z,18.19
2018-05-25T06:06:21.731Z,18.13
2018-05-25T06:07:21.932Z,18.13
2018-05-25T06:08:22.146Z,18.01
2018-05-25T06:09:22.370Z,18.15
2018-05-25T06:12:04.811Z,18.25
2018-05-25T06:13:04.985Z,18.25
2018-05-25T06:14:05.173Z,18.29
2018-05-25T06:15:12.803Z,18.28
2018-05-25T06:16:05.469Z,18.28
2018-05-25T06:17:05.633Z,18.31
2018-05-25T06:18:05.832Z,18.40
2018-05-25T06:19:14.949Z,18.45
2018-05-25T06:20:06.194Z,18.55
2018-05-25T06:21:06.317Z,18.62
2018-05-25T06:22:06.464Z,18.62
2018-05-25T06:23:06.630Z,18.73
2018-05-25T06:24:06.864Z,18.65
2018-05-25T06:25:07.020Z,18.62
2018-05-25T06:26:07.205Z,18.62
2018-05-25T06:27:07.372Z,18.68
2018-05-25T06:28:07.543Z,18.66
2018-05-25T06:29:07.712Z,18.78
2018-05-25T06:31:40.397Z,18.65
2018-05-25T06:32:40.416Z,18.62
2018-05-25T06:33:40.586Z,18.68
2018-05-25T06:34:40.748Z,18.55
2018-05-25T06:35:40.924Z,18.44
2018-05-25T06:36:41.092Z,18.47
2018-05-25T06:37:41.262Z,18.56
2018-05-25T06:38:41.431Z,18.60
2018-05-25T06:39:41.603Z,18.62
2018-05-25T06:40:41.767Z,18.65
2018-05-25T06:41:41.935Z,18.60
2018-05-25T06:42:42.102Z,18.68
2018-05-25T06:43:42.271Z,18.75
2018-05-25T06:44:42.443Z,18.78
2018-05-25T06:45:42.608Z,19.04
2018-05-25T06:48:25.155Z,19.15
2018-05-25T06:49:25.318Z,19.08
2018-05-25T06:50:25.497Z,19.36
2018-05-25T06:51:26.409Z,19.29
2018-05-25T06:52:25.823Z,19.47
2018-05-25T06:53:25.999Z,19.64
2018-05-25T06:54:26.165Z,19.79
2018-05-25T06:55:26.330Z,19.84
2018-05-25T06:56:26.493Z,19.96
2018-05-25T06:57:26.662Z,19.88
2018-05-25T06:58:26.829Z,19.86
2018-05-25T06:59:27.000Z,19.89
2018-05-25T07:00:27.170Z,19.92
2018-05-25T07:01:27.334Z,20.04
2018-05-25T07:02:27.500Z,20.02
2018-05-25T07:04:59.854Z,20.14
2018-05-25T07:06:00.030Z,20.18
2018-05-25T07:07:00.198Z,20.18
2018-05-25T07:08:00.371Z,20.21
2018-05-25T07:09:00.532Z,20.28
2018-05-25T07:10:00.699Z,20.31
2018-05-25T07:11:00.868Z,20.40
2018-05-25T07:12:01.027Z,20.52
2018-05-25T07:13:01.381Z,20.44
2018-05-25T07:14:01.317Z,20.40
2018-05-25T07:15:01.524Z,20.41
2018-05-25T07:16:01.692Z,20.48
2018-05-25T07:17:01.888Z,20.21
2018-05-25T07:18:02.034Z,20.13
2018-05-25T07:19:02.206Z,20.18
2018-05-25T07:21:34.787Z,20.22
2018-05-25T07:22:34.972Z,20.36
2018-05-25T07:23:35.173Z,20.52
2018-05-25T07:24:35.361Z,20.52
2018-05-25T07:25:35.551Z,20.62
2018-05-25T07:26:35.738Z,20.78
2018-05-25T07:27:35.924Z,20.80
2018-05-25T07:28:36.092Z,20.56
2018-05-25T07:29:36.270Z,20.62
2018-05-25T07:30:43.944Z,20.66
2018-05-25T07:31:36.569Z,20.84
2018-05-25T07:32:36.732Z,20.77
2018-05-25T07:33:36.926Z,20.50
2018-05-25T07:34:37.093Z,20.70
2018-05-25T07:35:37.267Z,20.90
2018-05-25T07:36:40.038Z,20.87
2018-05-25T07:37:37.576Z,20.62
2018-05-25T07:38:40.584Z,20.58
2018-05-25T07:39:37.866Z,20.65
2018-05-25T07:40:38.086Z,20.87
2018-05-25T07:41:38.251Z,20.97
2018-05-25T07:42:38.452Z,20.93
2018-05-25T07:43:38.615Z,20.84
2018-05-25T07:44:38.787Z,21.00
2018-05-25T07:47:13.581Z,21.12
2018-05-25T07:48:11.510Z,21.27
2018-05-25T07:49:13.633Z,21.29
2018-05-25T07:50:14.588Z,21.39
2018-05-25T07:51:12.001Z,21.43
2018-05-25T07:52:20.198Z,21.48
2018-05-25T07:53:12.369Z,21.36
2018-05-25T07:54:12.582Z,21.39
2018-05-25T07:55:12.882Z,21.48
2018-05-25T07:56:20.400Z,21.45
2018-05-25T07:57:13.119Z,21.36
2018-05-25T07:58:13.206Z,21.15
2018-05-25T07:59:20.536Z,20.85
2018-05-25T08:00:13.452Z,21.05
2018-05-25T08:01:13.661Z,21.24
2018-05-25T08:02:13.760Z,21.35
2018-05-25T08:03:13.934Z,21.32
2018-05-25T08:04:14.131Z,21.24
2018-05-25T08:05:14.305Z,21.30
2018-05-25T08:06:14.483Z,21.35
2018-05-25T08:07:14.653Z,21.43
2018-05-25T08:08:14.855Z,21.42
2018-05-25T08:09:15.061Z,21.35
2018-05-25T08:10:15.232Z,21.42
2018-05-25T08:11:15.402Z,21.52
2018-05-25T08:12:15.564Z,21.66
2018-05-25T08:13:15.747Z,21.62
2018-05-25T08:17:30.132Z,21.89
2018-05-25T08:18:30.325Z,21.69
2018-05-25T08:19:31.128Z,21.62
2018-05-25T08:20:30.542Z,21.58
2018-05-25T08:21:30.730Z,21.54
2018-05-25T08:22:30.899Z,21.61
2018-05-25T08:23:31.081Z,21.69
2018-05-25T08:24:31.239Z,21.70
2018-05-25T08:25:31.421Z,21.95
2018-05-25T08:26:31.683Z,22.10
2018-05-25T08:29:14.040Z,22.00
2018-05-25T08:30:19.279Z,22.13
2018-05-25T08:31:14.241Z,22.18
2018-05-25T08:32:23.696Z,22.23
2018-05-25T08:33:14.525Z,22.18
2018-05-25T08:34:14.702Z,22.10
2018-05-25T08:35:14.886Z,21.99
2018-05-25T08:36:15.035Z,22.07
2018-05-25T08:37:15.204Z,22.14
2018-05-25T08:38:16.977Z,22.26
2018-05-25T08:39:15.531Z,22.32
2018-05-25T08:40:15.702Z,22.36
2018-05-25T08:41:15.901Z,22.39
2018-05-25T08:42:16.895Z,22.38
2018-05-25T08:43:16.310Z,22.32
2018-05-25T08:44:16.410Z,22.25
2018-05-25T08:45:16.577Z,22.35
2018-05-25T08:46:16.757Z,22.18
2018-05-25T08:51:17.701Z,22.13
2018-05-25T08:52:17.492Z,21.88
2018-05-25T08:53:17.695Z,21.85
2018-05-25T08:54:25.144Z,21.95
2018-05-25T08:55:18.076Z,21.93
2018-05-25T08:56:18.255Z,21.89
2018-05-25T08:57:18.308Z,21.93
2018-05-25T08:58:25.726Z,22.00
2018-05-25T08:59:18.526Z,22.14
2018-05-25T09:00:18.726Z,22.23
2018-05-25T09:01:18.904Z,22.18
2018-05-25T09:02:19.047Z,22.22
2018-05-25T09:03:19.237Z,22.18
2018-05-25T09:04:19.426Z,22.22
2018-05-25T09:05:19.623Z,22.10
2018-05-25T09:06:19.857Z,22.11
2018-05-25T09:07:20.014Z,22.17
2018-05-25T09:08:20.094Z,22.25
2018-05-25T09:09:20.741Z,22.38
2018-05-25T09:10:20.441Z,22.26
2018-05-25T09:11:20.612Z,22.44
2018-05-25T09:12:20.819Z,22.54
2018-05-25T09:15:03.308Z,22.70
2018-05-25T09:16:03.503Z,22.76
2018-05-25T09:17:03.680Z,22.90
2018-05-25T09:18:03.861Z,22.90
2018-05-25T09:19:04.054Z,22.73
2018-05-25T09:20:04.219Z,22.80
2018-05-25T09:21:04.385Z,22.60
2018-05-25T09:22:04.608Z,22.70
2018-05-25T09:23:04.808Z,22.83
2018-05-25T09:24:04.981Z,22.84
2018-05-25T09:25:05.169Z,22.81
2018-05-25T09:26:05.332Z,22.91
2018-05-25T09:27:13.202Z,22.85
2018-05-25T09:28:05.739Z,22.80
2018-05-25T09:29:05.906Z,22.66
2018-05-25T09:30:06.084Z,22.84
2018-05-25T09:31:13.991Z,22.83
2018-05-25T09:32:06.404Z,22.83
2018-05-25T09:33:06.578Z,22.87
2018-05-25T09:34:06.761Z,22.91
2018-05-25T09:35:06.952Z,23.09
2018-05-25T09:36:07.127Z,23.18
2018-05-25T09:37:07.296Z,23.20
2018-05-25T09:38:07.497Z,23.44
2018-05-25T09:39:07.673Z,23.23
2018-05-25T09:40:07.836Z,23.24
2018-05-25T09:41:08.021Z,23.21
2018-05-25T09:42:08.220Z,23.18
2018-05-25T09:43:08.363Z,23.00
2018-05-25T09:44:08.549Z,22.84
2018-05-25T09:45:08.719Z,22.81
2018-05-25T09:49:05.988Z,22.72
2018-05-25T09:50:06.167Z,22.81
2018-05-25T09:51:06.387Z,22.84
2018-05-25T09:52:06.563Z,22.87
2018-05-25T09:53:14.753Z,22.93
2018-05-25T09:54:06.948Z,22.93
2018-05-25T09:55:07.140Z,23.08
2018-05-25T09:56:07.366Z,23.09
2018-05-25T09:57:07.541Z,23.15
2018-05-25T09:58:07.603Z,23.18
2018-05-25T09:59:07.774Z,23.27
2018-05-25T10:00:07.945Z,23.32
2018-05-25T10:01:08.125Z,23.37
2018-05-25T10:02:08.276Z,23.59
2018-05-25T10:03:08.736Z,23.54
2018-05-25T10:05:51.694Z,23.12
2018-05-25T10:06:51.862Z,23.08
2018-05-25T10:07:52.071Z,23.05
2018-05-25T10:08:52.236Z,22.96
2018-05-25T10:09:52.438Z,22.81
2018-05-25T10:10:52.621Z,22.65
2018-05-25T10:11:59.985Z,22.70
2018-05-25T10:12:53.018Z,22.78
2018-05-25T10:13:53.200Z,22.98
2018-05-25T10:15:00.828Z,22.87
2018-05-25T10:15:53.491Z,22.93
2018-05-25T10:16:53.663Z,22.91
2018-05-25T10:17:53.856Z,23.00
2018-05-25T10:18:54.019Z,23.02
2018-05-25T10:19:54.221Z,22.94
2018-05-25T10:20:55.321Z,23.08
2018-05-25T10:21:54.591Z,23.12
2018-05-25T10:22:54.781Z,23.09
2018-05-25T10:23:55.043Z,23.13
2018-05-25T10:24:55.776Z,23.21
2018-05-25T10:25:55.315Z,23.48
2018-05-25T10:26:55.510Z,23.63
2018-05-25T10:27:55.678Z,23.71
2018-05-25T10:28:55.850Z,23.83
2018-05-25T10:31:32.167Z,24.18
2018-05-25T10:32:28.333Z,24.13
2018-05-25T10:33:37.215Z,24.16
2018-05-25T10:34:28.657Z,24.10
2018-05-25T10:35:28.867Z,24.16
2018-05-25T10:36:36.606Z,24.03
2018-05-25T10:37:29.153Z,23.91
2018-05-25T10:38:29.343Z,23.92
2018-05-25T10:39:37.168Z,23.88
2018-05-25T10:40:29.702Z,23.80
2018-05-25T10:41:29.858Z,23.92
2018-05-25T10:42:30.041Z,23.98
2018-05-25T10:43:30.222Z,23.95
2018-05-25T10:44:30.384Z,23.95
2018-05-25T10:45:30.569Z,23.83
2018-05-25T10:46:30.738Z,24.02
2018-05-25T10:47:30.956Z,24.10
2018-05-25T10:48:31.132Z,24.28
2018-05-25T10:51:13.560Z,24.28
2018-05-25T10:52:13.710Z,24.20
2018-05-25T10:53:13.884Z,24.23
2018-05-25T10:54:14.050Z,24.26
2018-05-25T10:55:14.228Z,24.18
2018-05-25T10:57:46.515Z,24.21
2018-05-25T10:58:46.734Z,24.21
2018-05-25T10:59:46.927Z,24.43
2018-05-25T11:00:54.569Z,24.50
2018-05-25T11:01:47.243Z,24.54
2018-05-25T11:04:20.546Z,24.58
2018-05-25T11:05:19.696Z,24.50
2018-05-25T11:06:19.884Z,24.57
2018-05-25T11:07:20.095Z,24.45
2018-05-25T11:08:20.275Z,24.36
2018-05-25T11:09:20.435Z,24.43
2018-05-25T11:10:20.684Z,24.42
2018-05-25T11:11:20.840Z,24.48
2018-05-25T11:12:21.014Z,24.51
2018-05-25T11:13:21.196Z,24.42
2018-05-25T11:14:21.379Z,24.47
2018-05-25T11:15:21.545Z,24.61
2018-05-25T11:16:21.817Z,24.73
2018-05-25T11:17:21.947Z,24.78
2018-05-25T11:18:22.186Z,24.92
2018-05-25T11:19:30.628Z,24.74
2018-05-25T11:20:22.553Z,24.74
2018-05-25T11:21:22.803Z,24.73
2018-05-25T11:22:22.864Z,24.76
2018-05-25T11:23:30.499Z,24.65
2018-05-25T11:24:23.147Z,24.73
2018-05-25T11:25:23.347Z,24.66
2018-05-25T11:26:23.533Z,24.76
2018-05-25T11:27:23.690Z,24.77
2018-05-25T11:28:23.874Z,24.66
2018-05-25T11:29:24.046Z,24.77
2018-05-25T11:30:24.359Z,24.77
2018-05-25T11:31:25.113Z,24.95
2018-05-25T11:32:24.513Z,24.98
2018-05-25T11:33:25.590Z,25.06
2018-05-25T11:34:24.903Z,25.07
2018-05-25T11:35:25.065Z,24.91
2018-05-25T11:36:25.268Z,24.91
2018-05-25T11:37:25.479Z,25.01
2018-05-25T11:39:58.114Z,25.33
2018-05-25T11:40:58.293Z,25.48
2018-05-25T11:41:58.506Z,25.50
2018-05-25T11:43:08.194Z,25.69
2018-05-25T11:43:58.890Z,25.80
2018-05-25T11:44:59.078Z,25.85
2018-05-25T11:46:00.868Z,25.69
2018-05-25T11:46:59.467Z,25.46
2018-05-25T11:47:59.545Z,25.23
2018-05-25T11:48:59.732Z,25.11
2018-05-25T11:49:59.944Z,25.03
2018-05-25T11:51:01.898Z,24.86
2018-05-25T11:52:00.326Z,24.77
2018-05-25T11:53:03.597Z,24.74
2018-05-25T11:54:00.723Z,24.77
2018-05-25T11:55:00.776Z,24.74
2018-05-25T11:56:01.142Z,24.88
2018-05-25T11:57:05.209Z,24.84
2018-05-25T11:58:01.471Z,24.85
2018-05-25T11:59:09.379Z,24.85
2018-05-25T12:00:01.563Z,24.98
2018-05-25T12:01:01.727Z,25.04
2018-05-25T12:02:09.576Z,25.10
2018-05-25T12:03:02.398Z,25.07
2018-05-25T12:04:02.341Z,24.88
2018-05-25T12:05:10.018Z,24.86
2018-05-25T12:06:03.436Z,24.84
2018-05-25T12:07:02.843Z,24.88
2018-05-25T12:08:10.624Z,24.86
2018-05-25T12:09:03.163Z,24.77
2018-05-25T12:10:03.329Z,24.86
2018-05-25T12:11:03.522Z,24.81
2018-05-25T12:12:03.692Z,24.78
2018-05-25T12:13:03.862Z,24.77
2018-05-25T12:14:04.033Z,24.76
2018-05-25T12:15:04.217Z,24.74
2018-05-25T12:16:04.403Z,24.70
2018-05-25T12:17:04.596Z,24.84
2018-05-25T12:18:04.760Z,24.99
2018-05-25T12:20:37.607Z,25.03
2018-05-25T12:21:37.774Z,25.04
2018-05-25T12:22:45.934Z,24.98
2018-05-25T12:23:38.118Z,24.95
2018-05-25T12:24:48.282Z,24.81
2018-05-25T12:25:38.519Z,24.77
2018-05-25T12:26:38.683Z,24.65
2018-05-25T12:27:38.854Z,24.77
2018-05-25T12:28:39.065Z,24.86
2018-05-25T12:29:39.220Z,25.01
2018-05-25T12:30:47.883Z,25.04
2018-05-25T12:31:41.140Z,25.03
2018-05-25T12:32:39.763Z,24.95
2018-05-25T12:33:39.847Z,24.86
2018-05-25T12:34:40.011Z,24.96
2018-05-25T12:35:40.218Z,25.06
2018-05-25T12:36:40.396Z,25.08
2018-05-25T12:37:40.620Z,25.07
2018-05-25T12:38:40.838Z,24.99
2018-05-25T12:39:41.010Z,24.98
2018-05-25T12:44:06.707Z,24.81
2018-05-25T12:45:14.062Z,25.03
2018-05-25T12:46:07.001Z,25.01
2018-05-25T12:47:07.168Z,25.06
2018-05-25T12:48:07.355Z,25.11
2018-05-25T12:49:07.528Z,25.21
2018-05-25T12:50:08.219Z,25.22
2018-05-25T12:51:07.887Z,25.41
2018-05-25T12:52:08.715Z,25.70
2018-05-25T12:53:17.087Z,25.60
2018-05-25T12:54:08.458Z,25.87
2018-05-25T12:55:08.667Z,26.13
2018-05-25T12:56:08.831Z,26.21
2018-05-25T12:57:09.005Z,26.00
2018-05-25T12:58:09.175Z,25.96
2018-05-25T12:59:09.349Z,26.23
2018-05-25T13:00:09.518Z,26.25
2018-05-25T13:01:09.694Z,26.28
2018-05-25T13:02:09.899Z,26.34
2018-05-25T13:03:10.079Z,26.28
2018-05-25T13:04:10.289Z,26.10
2018-05-25T13:05:10.375Z,25.95
2018-05-25T13:06:18.505Z,25.99
2018-05-25T13:07:10.902Z,25.99
2018-05-25T13:08:10.828Z,26.02
2018-05-25T13:09:10.963Z,26.13
2018-05-25T13:10:11.129Z,26.09
2018-05-25T13:11:11.325Z,26.02
2018-05-25T13:12:11.563Z,25.98
2018-05-25T13:13:11.733Z,25.88
2018-05-25T13:14:11.935Z,25.84
2018-05-25T13:15:19.299Z,25.90
2018-05-25T13:16:12.337Z,25.88
2018-05-25T13:17:12.522Z,25.73
2018-05-25T13:18:13.401Z,25.68
2018-05-25T13:19:12.946Z,25.66
2018-05-25T13:20:13.779Z,25.65
2018-05-25T13:21:13.198Z,25.62
2018-05-25T13:22:13.397Z,25.69
2018-05-25T13:23:13.571Z,25.69
2018-05-25T13:24:13.747Z,25.60
2018-05-25T13:25:14.705Z,25.62
2018-05-25T13:26:22.300Z,25.70
2018-05-25T13:27:14.469Z,25.62
2018-05-25T13:28:14.455Z,25.69
2018-05-25T13:29:14.604Z,25.78
2018-05-25T13:30:14.775Z,25.77
2018-05-25T13:31:15.090Z,26.02
2018-05-25T13:32:17.839Z,26.02
2018-05-25T13:33:15.238Z,25.69
2018-05-25T13:34:15.426Z,25.69
2018-05-25T13:35:15.610Z,25.75
2018-05-25T13:36:15.796Z,25.78
2018-05-25T13:37:15.970Z,25.81
2018-05-25T13:38:16.145Z,25.68
2018-05-25T13:39:16.338Z,25.65
2018-05-25T13:40:16.562Z,25.78
2018-05-25T13:41:24.771Z,25.72
2018-05-25T13:42:16.962Z,25.70
2018-05-25T13:43:17.920Z,25.73
2018-05-25T13:44:17.363Z,25.75
2018-05-25T13:45:17.556Z,25.75
2018-05-25T13:46:17.831Z,25.62
2018-05-25T13:47:17.879Z,25.58
2018-05-25T13:48:18.837Z,25.78
2018-05-25T13:49:18.292Z,25.70
2018-05-25T13:50:18.707Z,25.68
2018-05-25T13:51:18.698Z,25.62
2018-05-25T13:52:18.933Z,25.75
2018-05-25T13:53:19.864Z,25.73
2018-05-25T13:54:19.850Z,25.60
2018-05-25T13:55:19.469Z,25.54
2018-05-25T13:56:27.384Z,25.58
2018-05-25T13:57:19.548Z,25.44
2018-05-25T13:58:19.828Z,25.50
2018-05-25T13:59:19.911Z,25.66
2018-05-25T14:00:20.117Z,25.38
2018-05-25T14:01:20.324Z,25.41
2018-05-25T14:02:20.511Z,25.18
2018-05-25T14:03:32.107Z,25.13
2018-05-25T14:04:20.908Z,25.14
2018-05-25T14:05:21.079Z,25.08
2018-05-25T14:06:21.275Z,24.99
2018-05-25T14:07:21.454Z,25.10
2018-05-25T14:08:21.625Z,25.06
2018-05-25T14:09:21.791Z,25.08
2018-05-25T14:10:21.992Z,25.08
2018-05-25T14:11:22.163Z,25.08
2018-05-25T14:12:22.348Z,25.16
2018-05-25T14:13:22.564Z,25.16
2018-05-25T14:14:23.388Z,25.17
2018-05-25T14:15:22.936Z,25.22
2018-05-25T14:16:23.122Z,25.26
2018-05-25T14:17:23.307Z,25.21
2018-05-25T14:20:05.595Z,25.31
2018-05-25T14:21:13.047Z,25.22
2018-05-25T14:22:06.005Z,25.18
2018-05-25T14:23:06.178Z,25.21
2018-05-25T14:24:06.348Z,25.36
2018-05-25T14:25:06.610Z,25.40
2018-05-25T14:26:14.537Z,25.47
2018-05-25T14:27:06.827Z,25.44
2018-05-25T14:28:06.996Z,25.63
2018-05-25T14:29:07.183Z,25.59
2018-05-25T14:30:07.447Z,25.66
2018-05-25T14:31:07.529Z,25.70
2018-05-25T14:32:07.728Z,25.65
2018-05-25T14:33:07.917Z,25.59
2018-05-25T14:34:08.118Z,25.47
2018-05-25T14:35:08.314Z,25.48